createdAt,value
2018-10-03T00:00:35.233Z,6.00
2018-10-03T00:01:35.222Z,5.50
2018-10-03T00:02:35.224Z,5.70
2018-10-03T00:03:35.200Z,5.70
2018-10-03T00:04:35.190Z,5.80
2018-10-03T00:05:35.179Z,5.40
2018-10-03T00:06:35.170Z,6.90
2018-10-03T00:07:35.157Z,4.00
2018-10-03T00:08:35.149Z,5.10
2018-10-03T00:09:35.136Z,4.90
2018-10-03T00:10:35.126Z,5.30
2018-10-03T00:11:35.114Z,4.30
2018-10-03T00:12:35.103Z,3.60
2018-10-03T00:13:35.093Z,6.50
2018-10-03T00:14:35.082Z,6.00
2018-10-03T00:15:35.071Z,3.70
2018-10-03T00:16:35.062Z,7.10
2018-10-03T00:17:35.050Z,4.80
2018-10-03T00:18:35.040Z,7.10
2018-10-03T00:19:35.029Z,4.50
2018-10-03T00:20:35.017Z,3.30
2018-10-03T00:21:35.006Z,8.50
2018-10-03T00:22:34.997Z,6.30
2018-10-03T00:23:34.984Z,6.60
2018-10-03T00:24:34.974Z,5.60
2018-10-03T00:25:34.963Z,7.70
2018-10-03T00:26:34.952Z,7.30
2018-10-03T00:27:34.942Z,5.00
2018-10-03T00:28:34.930Z,8.80
2018-10-03T00:29:34.920Z,6.20
2018-10-03T00:30:34.909Z,4.10
2018-10-03T00:31:34.897Z,5.80
2018-10-03T00:32:34.887Z,5.90
2018-10-03T00:33:34.876Z,6.60
2018-10-03T00:34:34.867Z,3.40
2018-10-03T00:35:34.853Z,3.90
2018-10-03T00:36:34.848Z,6.00
2018-10-03T00:37:34.842Z,6.30
2018-10-03T00:38:34.821Z,6.70
2018-10-03T00:39:34.810Z,4.60
2018-10-03T00:40:34.800Z,5.70
2018-10-03T00:41:34.788Z,7.30
2018-10-03T00:42:34.777Z,4.80
2018-10-03T00:43:34.767Z,3.60
2018-10-03T00:44:34.755Z,6.60
2018-10-03T00:45:34.745Z,7.60
2018-10-03T00:46:34.738Z,4.90
2018-10-03T00:47:34.722Z,5.00
2018-10-03T00:48:34.712Z,5.60
2018-10-03T00:49:34.700Z,7.10
2018-10-03T00:50:34.692Z,5.70
2018-10-03T00:51:34.677Z,7.20
2018-10-03T00:52:34.672Z,5.20
2018-10-03T00:53:34.656Z,5.10
2018-10-03T00:54:34.644Z,7.20
2018-10-03T00:55:34.633Z,5.90
2018-10-03T00:56:34.622Z,3.90
2018-10-03T00:57:34.614Z,5.90
2018-10-03T00:58:34.601Z,5.40
2018-10-03T00:59:34.588Z,6.30
2018-10-03T01:00:34.577Z,6.20
2018-10-03T01:01:34.566Z,6.60
2018-10-03T01:02:34.556Z,10.20
2018-10-03T01:03:34.545Z,7.50
2018-10-03T01:04:34.533Z,5.60
2018-10-03T01:05:34.525Z,5.20
2018-10-03T01:06:34.512Z,6.40
2018-10-03T01:07:34.499Z,4.60
2018-10-03T01:08:34.489Z,5.60
2018-10-03T01:09:34.477Z,5.90
2018-10-03T01:10:34.466Z,6.70
2018-10-03T01:11:34.454Z,4.60
2018-10-03T01:12:34.444Z,5.50
2018-10-03T01:13:34.432Z,4.30
2018-10-03T01:14:34.422Z,6.00
2018-10-03T01:15:34.412Z,4.30
2018-10-03T01:16:34.399Z,6.00
2018-10-03T01:17:34.392Z,9.40
2018-10-03T01:18:34.380Z,5.80
2018-10-03T01:19:34.365Z,4.80
2018-10-03T01:20:34.353Z,4.40
2018-10-03T01:21:34.342Z,5.40
2018-10-03T01:22:34.333Z,3.60
2018-10-03T01:23:34.319Z,4.90
2018-10-03T01:24:34.310Z,6.70
2018-10-03T01:25:34.297Z,6.20
2018-10-03T01:26:34.287Z,3.20
2018-10-03T01:27:34.274Z,6.70
2018-10-03T01:28:34.263Z,3.40
2018-10-03T01:29:34.253Z,10.50
2018-10-03T01:30:34.241Z,5.10
2018-10-03T01:31:34.229Z,4.90
2018-10-03T01:32:34.217Z,4.10
2018-10-03T01:33:34.208Z,7.30
2018-10-03T01:34:34.195Z,6.70
2018-10-03T01:35:34.184Z,7.10
2018-10-03T01:36:34.173Z,3.80
2018-10-03T01:37:34.162Z,7.70
2018-10-03T01:38:34.151Z,8.90
2018-10-03T01:39:34.139Z,3.90
2018-10-03T01:40:34.129Z,6.50
2018-10-03T01:41:34.116Z,3.60
2018-10-03T01:42:34.105Z,5.40
2018-10-03T01:43:34.092Z,7.00
2018-10-03T01:44:34.082Z,4.80
2018-10-03T01:45:34.071Z,5.30
2018-10-03T01:46:34.060Z,2.40
2018-10-03T01:47:34.047Z,4.40
2018-10-03T01:48:34.038Z,9.40
2018-10-03T01:49:34.024Z,4.20
2018-10-03T01:50:34.017Z,3.90
2018-10-03T01:51:34.001Z,4.80
2018-10-03T01:52:33.990Z,5.40
2018-10-03T01:53:33.980Z,4.90
2018-10-03T01:54:33.968Z,5.10
2018-10-03T01:55:33.956Z,6.80
2018-10-03T01:56:33.944Z,7.70
2018-10-03T01:57:33.933Z,6.80
2018-10-03T01:58:33.922Z,4.20
2018-10-03T01:59:33.910Z,4.10
2018-10-03T02:00:33.899Z,4.10
2018-10-03T02:01:33.887Z,3.60
2018-10-03T02:02:33.876Z,3.00
2018-10-03T02:03:33.887Z,6.20
2018-10-03T02:04:33.853Z,6.70
2018-10-03T02:05:33.841Z,5.80
2018-10-03T02:06:33.830Z,2.70
2018-10-03T02:07:33.818Z,4.90
2018-10-03T02:08:33.806Z,4.80
2018-10-03T02:09:33.795Z,4.30
2018-10-03T02:10:33.784Z,4.30
2018-10-03T02:11:33.772Z,6.40
2018-10-03T02:12:33.760Z,6.30
2018-10-03T02:13:33.749Z,4.00
2018-10-03T02:14:33.742Z,4.80
2018-10-03T02:15:33.726Z,5.80
2018-10-03T02:16:33.715Z,3.20
2018-10-03T02:17:33.704Z,5.80
2018-10-03T02:18:33.692Z,5.20
2018-10-03T02:19:33.679Z,4.40
2018-10-03T02:20:33.670Z,4.00
2018-10-03T02:21:33.662Z,3.30
2018-10-03T02:22:33.650Z,5.00
2018-10-03T02:23:33.634Z,8.10
2018-10-03T02:24:33.627Z,8.00
2018-10-03T02:25:33.611Z,4.30
2018-10-03T02:26:33.600Z,5.00
2018-10-03T02:27:33.588Z,4.70
2018-10-03T02:28:33.577Z,6.10
2018-10-03T02:29:33.565Z,4.00
2018-10-03T02:30:33.555Z,8.30
2018-10-03T02:31:33.542Z,4.80
2018-10-03T02:32:33.531Z,5.50
2018-10-03T02:33:33.521Z,5.50
2018-10-03T02:34:33.518Z,6.70
2018-10-03T02:35:33.496Z,5.00
2018-10-03T02:36:33.485Z,5.50
2018-10-03T02:37:33.474Z,5.20
2018-10-03T02:38:33.463Z,3.20
2018-10-03T02:39:33.450Z,4.40
2018-10-03T02:40:33.439Z,3.80
2018-10-03T02:41:33.428Z,5.70
2018-10-03T02:42:33.417Z,5.90
2018-10-03T02:43:33.404Z,4.80
2018-10-03T02:44:33.393Z,4.40
2018-10-03T02:45:33.382Z,4.80
2018-10-03T02:46:33.372Z,4.30
2018-10-03T02:47:33.359Z,4.90
2018-10-03T02:48:33.348Z,8.20
2018-10-03T02:49:33.337Z,8.60
2018-10-03T02:50:33.326Z,5.70
2018-10-03T02:51:33.315Z,8.90
2018-10-03T02:52:33.303Z,3.60
2018-10-03T02:53:33.293Z,3.60
2018-10-03T02:54:33.280Z,7.00
2018-10-03T02:55:33.267Z,3.30
2018-10-03T02:56:33.256Z,6.70
2018-10-03T02:57:33.245Z,7.20
2018-10-03T02:58:33.234Z,5.40
2018-10-03T02:59:33.221Z,3.60
2018-10-03T03:00:33.210Z,4.20
2018-10-03T03:01:33.286Z,4.30
2018-10-03T03:02:33.189Z,5.80
2018-10-03T03:03:33.175Z,4.20
2018-10-03T03:04:33.168Z,6.00
2018-10-03T03:05:33.163Z,6.10
2018-10-03T03:06:33.144Z,6.80
2018-10-03T03:07:33.129Z,7.00
2018-10-03T03:08:33.197Z,3.90
2018-10-03T03:09:33.109Z,6.80
2018-10-03T03:10:33.107Z,6.50
2018-10-03T03:11:33.084Z,4.10
2018-10-03T03:12:33.073Z,4.00
2018-10-03T03:13:33.064Z,3.70
2018-10-03T03:14:33.053Z,3.60
2018-10-03T03:15:33.039Z,4.80
2018-10-03T03:16:33.027Z,5.30
2018-10-03T03:17:33.017Z,6.00
2018-10-03T03:18:33.004Z,5.70
2018-10-03T03:19:32.992Z,6.00
2018-10-03T03:20:32.984Z,7.00
2018-10-03T03:21:32.973Z,6.60
2018-10-03T03:22:32.960Z,6.40
2018-10-03T03:23:32.945Z,6.20
2018-10-03T03:24:32.936Z,4.80
2018-10-03T03:25:32.923Z,6.10
2018-10-03T03:26:32.917Z,4.70
2018-10-03T03:27:32.899Z,7.40
2018-10-03T03:28:32.889Z,3.20
2018-10-03T03:29:32.879Z,3.70
2018-10-03T03:30:32.867Z,3.90
2018-10-03T03:31:32.856Z,5.00
2018-10-03T03:32:32.852Z,6.00
2018-10-03T03:33:32.832Z,5.40
2018-10-03T03:34:32.822Z,5.30
2018-10-03T03:35:32.815Z,6.90
2018-10-03T03:36:32.798Z,6.20
2018-10-03T03:37:32.786Z,4.40
2018-10-03T03:38:32.777Z,5.90
2018-10-03T03:39:32.764Z,4.60
2018-10-03T03:40:32.751Z,5.60
2018-10-03T03:41:32.742Z,4.80
2018-10-03T03:42:32.728Z,8.70
2018-10-03T03:43:32.723Z,6.00
2018-10-03T03:44:32.705Z,7.00
2018-10-03T03:45:32.694Z,5.20
2018-10-03T03:46:32.683Z,6.10
2018-10-03T03:47:32.675Z,7.00
2018-10-03T03:48:32.661Z,5.20
2018-10-03T03:49:32.649Z,4.40
2018-10-03T03:50:32.639Z,4.00
2018-10-03T03:51:32.625Z,6.00
2018-10-03T03:52:32.617Z,9.00
2018-10-03T03:53:32.604Z,4.80
2018-10-03T03:54:32.592Z,4.50
2018-10-03T03:55:32.581Z,8.50
2018-10-03T03:56:32.569Z,6.10
2018-10-03T03:57:32.557Z,5.10
2018-10-03T03:58:32.546Z,6.10
2018-10-03T03:59:32.536Z,2.80
2018-10-03T04:00:32.523Z,6.40
2018-10-03T04:01:32.512Z,4.20
2018-10-03T04:02:32.502Z,7.20
2018-10-03T04:03:32.490Z,5.30
2018-10-03T04:04:32.480Z,5.40
2018-10-03T04:05:32.468Z,4.00
2018-10-03T04:06:32.456Z,4.40
2018-10-03T04:07:32.447Z,6.40
2018-10-03T04:08:32.432Z,4.20
2018-10-03T04:09:32.421Z,6.00
2018-10-03T04:10:32.411Z,3.40
2018-10-03T04:11:32.399Z,5.10
2018-10-03T04:12:32.387Z,3.40
2018-10-03T04:13:32.376Z,8.90
2018-10-03T04:14:32.367Z,5.90
2018-10-03T04:15:32.353Z,5.50
2018-10-03T04:16:32.343Z,5.80
2018-10-03T04:17:32.331Z,3.30
2018-10-03T04:18:32.320Z,5.50
2018-10-03T04:19:32.308Z,6.60
2018-10-03T04:20:32.295Z,7.90
2018-10-03T04:21:32.283Z,8.10
2018-10-03T04:22:32.274Z,4.50
2018-10-03T04:23:32.261Z,5.90
2018-10-03T04:24:32.249Z,3.90
2018-10-03T04:25:32.238Z,5.50
2018-10-03T04:26:32.229Z,8.00
2018-10-03T04:27:32.215Z,3.60
2018-10-03T04:28:32.203Z,4.10
2018-10-03T04:29:32.198Z,6.00
2018-10-03T04:30:32.182Z,4.70
2018-10-03T04:31:32.171Z,3.90
2018-10-03T04:32:32.162Z,3.90
2018-10-03T04:33:32.150Z,5.40
2018-10-03T04:34:32.139Z,6.60
2018-10-03T04:35:32.180Z,4.50
2018-10-03T04:36:32.117Z,3.30
2018-10-03T04:37:32.106Z,3.70
2018-10-03T04:38:32.095Z,5.40
2018-10-03T04:39:32.085Z,8.20
2018-10-03T04:40:32.071Z,7.80
2018-10-03T04:41:32.060Z,4.00
2018-10-03T04:42:32.049Z,5.40
2018-10-03T04:43:32.037Z,7.00
2018-10-03T04:44:32.029Z,6.90
2018-10-03T04:45:32.014Z,6.90
2018-10-03T04:46:32.003Z,4.10
2018-10-03T04:47:31.991Z,8.20
2018-10-03T04:48:31.980Z,9.40
2018-10-03T04:49:31.970Z,9.60
2018-10-03T04:50:31.958Z,8.40
2018-10-03T04:51:31.944Z,6.00
2018-10-03T04:52:31.935Z,4.30
2018-10-03T04:53:31.925Z,7.70
2018-10-03T04:54:31.919Z,4.50
2018-10-03T04:55:31.901Z,5.50
2018-10-03T04:56:31.890Z,6.50
2018-10-03T04:57:31.878Z,8.20
2018-10-03T04:58:31.867Z,6.20
2018-10-03T04:59:31.855Z,5.20
2018-10-03T05:00:31.843Z,5.50
2018-10-03T05:01:31.832Z,7.70
2018-10-03T05:02:31.821Z,7.60
2018-10-03T05:03:31.810Z,6.40
2018-10-03T05:04:31.797Z,5.90
2018-10-03T05:05:31.786Z,6.50
2018-10-03T05:06:31.775Z,7.20
2018-10-03T05:07:31.764Z,8.10
2018-10-03T05:08:31.752Z,5.10
2018-10-03T05:09:31.743Z,5.30
2018-10-03T05:10:31.730Z,6.50
2018-10-03T05:11:31.718Z,7.20
2018-10-03T05:12:31.707Z,4.60
2018-10-03T05:13:31.696Z,7.60
2018-10-03T05:14:31.684Z,7.40
2018-10-03T05:15:31.672Z,9.40
2018-10-03T05:16:31.661Z,6.10
2018-10-03T05:17:31.652Z,5.50
2018-10-03T05:18:31.639Z,6.80
2018-10-03T05:19:31.626Z,13.30
2018-10-03T05:20:31.615Z,4.60
2018-10-03T05:21:31.604Z,6.50
2018-10-03T05:22:31.593Z,4.10
2018-10-03T05:23:31.581Z,5.80
2018-10-03T05:24:31.571Z,8.30
2018-10-03T05:25:31.557Z,6.80
2018-10-03T05:26:31.547Z,4.40
2018-10-03T05:27:31.534Z,5.40
2018-10-03T05:28:31.523Z,9.70
2018-10-03T05:29:31.514Z,5.30
2018-10-03T05:30:31.502Z,9.00
2018-10-03T05:31:31.490Z,8.40
2018-10-03T05:32:31.485Z,10.50
2018-10-03T05:33:31.467Z,7.00
2018-10-03T05:34:31.455Z,8.30
2018-10-03T05:35:31.443Z,7.20
2018-10-03T05:36:31.438Z,6.00
2018-10-03T05:37:31.421Z,8.10
2018-10-03T05:38:31.413Z,8.60
2018-10-03T05:39:31.414Z,9.00
2018-10-03T05:40:31.386Z,7.00
2018-10-03T05:41:31.375Z,7.80
2018-10-03T05:42:31.364Z,7.60
2018-10-03T05:43:31.351Z,7.70
2018-10-03T05:44:31.341Z,15.40
2018-10-03T05:45:31.329Z,8.70
2018-10-03T05:46:31.319Z,4.40
2018-10-03T05:47:31.306Z,9.00
2018-10-03T05:48:31.398Z,7.20
2018-10-03T05:49:31.283Z,9.70
2018-10-03T05:50:31.273Z,8.40
2018-10-03T05:51:31.260Z,5.40
2018-10-03T05:52:31.249Z,6.80
2018-10-03T05:53:31.237Z,7.20
2018-10-03T05:54:31.235Z,8.90
2018-10-03T05:55:31.214Z,5.50
2018-10-03T05:56:31.203Z,6.60
2018-10-03T05:57:31.192Z,8.10
2018-10-03T05:58:31.181Z,8.50
2018-10-03T05:59:31.168Z,9.00
2018-10-03T06:01:31.146Z,8.00
2018-10-03T06:02:31.135Z,6.10
2018-10-03T06:03:31.123Z,13.20
2018-10-03T06:04:31.112Z,7.50
2018-10-03T06:05:31.101Z,7.10
2018-10-03T06:06:31.089Z,7.30
2018-10-03T06:07:31.077Z,6.20
2018-10-03T06:08:31.066Z,6.60
2018-10-03T06:09:31.054Z,5.50
2018-10-03T06:10:31.043Z,8.40
2018-10-03T06:11:31.034Z,9.60
2018-10-03T06:12:31.020Z,6.80
2018-10-03T06:13:31.009Z,7.80
2018-10-03T06:14:30.998Z,9.50
2018-10-03T06:15:30.986Z,11.00
2018-10-03T06:16:31.028Z,5.80
2018-10-03T06:17:30.963Z,9.80
2018-10-03T06:18:30.955Z,14.00
2018-10-03T06:19:30.940Z,14.60
2018-10-03T06:20:30.929Z,9.70
2018-10-03T06:21:30.918Z,8.00
2018-10-03T06:22:30.908Z,10.20
2018-10-03T06:23:30.895Z,8.80
2018-10-03T06:24:30.884Z,10.10
2018-10-03T06:25:30.877Z,8.70
2018-10-03T06:26:30.862Z,12.10
2018-10-03T06:27:30.850Z,7.90
2018-10-03T06:28:30.839Z,7.50
2018-10-03T06:29:30.828Z,6.40
2018-10-03T06:30:30.819Z,6.70
2018-10-03T06:31:30.806Z,11.50
2018-10-03T06:32:30.795Z,7.50
2018-10-03T06:33:30.790Z,7.00
2018-10-03T06:34:30.772Z,6.70
2018-10-03T06:35:30.760Z,4.90
2018-10-03T06:36:30.750Z,7.50
2018-10-03T06:37:30.739Z,7.70
2018-10-03T06:38:30.727Z,7.50
2018-10-03T06:39:30.783Z,13.70
2018-10-03T06:40:30.790Z,9.60
2018-10-03T06:41:30.694Z,8.00
2018-10-03T06:42:30.683Z,7.50
2018-10-03T06:43:30.671Z,10.60
2018-10-03T06:44:30.660Z,9.50
2018-10-03T06:45:30.660Z,9.10
2018-10-03T06:46:30.639Z,8.20
2018-10-03T06:47:30.627Z,7.50
2018-10-03T06:48:30.616Z,11.60
2018-10-03T06:49:30.609Z,7.60
2018-10-03T06:50:30.594Z,7.60
2018-10-03T06:51:30.581Z,8.70
2018-10-03T06:52:30.571Z,8.50
2018-10-03T06:53:30.560Z,9.30
2018-10-03T06:54:30.551Z,6.70
2018-10-03T06:55:30.537Z,5.60
2018-10-03T06:56:30.527Z,5.80
2018-10-03T06:57:30.517Z,4.20
2018-10-03T06:58:30.506Z,8.80
2018-10-03T06:59:30.494Z,8.30
2018-10-03T07:00:30.484Z,8.70
2018-10-03T07:01:30.472Z,10.80
2018-10-03T07:02:30.462Z,6.90
2018-10-03T07:03:30.452Z,8.40
2018-10-03T07:04:30.445Z,8.70
2018-10-03T07:05:30.431Z,4.70
2018-10-03T07:06:30.421Z,8.30
2018-10-03T07:07:30.409Z,9.00
2018-10-03T07:08:30.399Z,6.80
2018-10-03T07:09:30.387Z,6.20
2018-10-03T07:10:30.378Z,11.20
2018-10-03T07:11:30.365Z,6.80
2018-10-03T07:12:30.355Z,7.50
2018-10-03T07:13:30.344Z,6.20
2018-10-03T07:14:30.334Z,6.20
2018-10-03T07:15:30.321Z,6.40
2018-10-03T07:16:30.312Z,5.00
2018-10-03T07:17:30.301Z,6.50
2018-10-03T07:18:30.290Z,9.20
2018-10-03T07:19:30.277Z,5.70
2018-10-03T07:20:30.269Z,5.90
2018-10-03T07:21:30.262Z,5.60
2018-10-03T07:22:30.246Z,4.40
2018-10-03T07:23:30.236Z,9.30
2018-10-03T07:24:30.227Z,10.80
2018-10-03T07:25:30.219Z,9.30
2018-10-03T07:26:30.210Z,10.40
2018-10-03T07:27:30.193Z,4.80
2018-10-03T07:28:30.183Z,6.30
2018-10-03T07:29:30.173Z,11.50
2018-10-03T07:30:30.167Z,8.40
2018-10-03T07:31:30.151Z,4.90
2018-10-03T07:32:30.212Z,6.40
2018-10-03T07:33:30.130Z,6.70
2018-10-03T07:34:30.121Z,9.20
2018-10-03T07:35:30.108Z,8.90
2018-10-03T07:36:30.099Z,8.50
2018-10-03T07:37:30.089Z,13.80
2018-10-03T07:38:30.077Z,11.10
2018-10-03T07:39:30.066Z,10.60
2018-10-03T07:40:30.057Z,6.70
2018-10-03T07:41:30.046Z,10.40
2018-10-03T07:42:30.036Z,12.90
2018-10-03T07:43:30.024Z,6.10
2018-10-03T07:44:30.015Z,8.50
2018-10-03T07:45:30.006Z,8.40
2018-10-03T07:46:29.993Z,7.70
2018-10-03T07:47:29.983Z,11.30
2018-10-03T07:48:29.974Z,11.90
2018-10-03T07:49:29.965Z,6.60
2018-10-03T07:50:29.953Z,9.30
2018-10-03T07:51:29.945Z,14.70
2018-10-03T07:52:29.933Z,8.70
2018-10-03T07:53:29.945Z,10.00
2018-10-03T07:54:29.912Z,11.00
2018-10-03T07:55:29.901Z,10.80
2018-10-03T07:56:29.893Z,12.40
2018-10-03T07:57:29.881Z,10.60
2018-10-03T07:58:29.870Z,7.50
2018-10-03T07:59:29.859Z,7.70
2018-10-03T08:00:29.869Z,7.60
2018-10-03T08:01:29.841Z,9.30
2018-10-03T08:02:29.828Z,8.10
2018-10-03T08:03:29.817Z,9.70
2018-10-03T08:04:29.807Z,7.80
2018-10-03T08:05:29.796Z,5.00
2018-10-03T08:06:29.789Z,7.90
2018-10-03T08:07:29.776Z,6.80
2018-10-03T08:08:29.770Z,4.70
2018-10-03T08:09:29.761Z,10.70
2018-10-03T08:10:29.747Z,6.30
2018-10-03T08:11:29.733Z,9.90
2018-10-03T08:12:29.725Z,7.70
2018-10-03T08:13:29.716Z,6.70
2018-10-03T08:14:29.705Z,8.70
2018-10-03T08:15:29.694Z,8.40
2018-10-03T08:16:29.684Z,8.90
2018-10-03T08:17:29.742Z,8.90
2018-10-03T08:18:29.665Z,6.20
2018-10-03T08:19:29.651Z,5.90
2018-10-03T08:20:29.646Z,8.10
2018-10-03T08:21:29.632Z,8.90
2018-10-03T08:22:29.622Z,8.40
2018-10-03T08:23:29.610Z,7.50
2018-10-03T08:24:29.671Z,8.70
2018-10-03T08:25:29.591Z,8.70
2018-10-03T08:26:29.582Z,7.30
2018-10-03T08:27:29.571Z,10.80
2018-10-03T08:28:29.560Z,6.60
2018-10-03T08:29:29.550Z,6.50
2018-10-03T08:30:29.540Z,6.80
2018-10-03T08:31:29.529Z,9.50
2018-10-03T08:32:29.563Z,8.40
2018-10-03T08:33:29.510Z,8.10
2018-10-03T08:34:29.499Z,9.40
2018-10-03T08:35:29.489Z,7.90
2018-10-03T08:36:29.479Z,8.60
2018-10-03T08:37:29.469Z,7.30
2018-10-03T08:38:29.512Z,6.30
2018-10-03T08:39:29.449Z,7.60
2018-10-03T08:40:29.440Z,7.00
2018-10-03T08:41:29.430Z,7.10
2018-10-03T08:42:29.420Z,8.90
2018-10-03T08:43:29.410Z,6.00
2018-10-03T08:44:29.400Z,7.10
2018-10-03T08:45:29.429Z,7.90
2018-10-03T08:47:29.371Z,8.10
2018-10-03T08:48:29.361Z,7.20
2018-10-03T08:49:29.353Z,11.30
2018-10-03T08:50:29.342Z,11.50
2018-10-03T08:51:29.338Z,6.60
2018-10-03T08:52:29.322Z,7.50
2018-10-03T08:53:29.313Z,6.00
2018-10-03T08:54:29.304Z,6.50
2018-10-03T08:55:29.293Z,9.20
2018-10-03T08:56:29.284Z,6.90
2018-10-03T08:57:29.273Z,6.50
2018-10-03T08:58:29.418Z,8.30
2018-10-03T08:59:29.255Z,7.50
2018-10-03T09:00:29.248Z,6.30
2018-10-03T09:01:29.239Z,8.50
2018-10-03T09:02:29.228Z,9.70
2018-10-03T09:03:29.216Z,5.80
2018-10-03T09:04:29.207Z,10.50
2018-10-03T09:05:29.198Z,7.50
2018-10-03T09:06:29.190Z,9.80
2018-10-03T09:07:29.179Z,7.30
2018-10-03T09:08:29.177Z,8.90
2018-10-03T09:09:29.160Z,11.80
2018-10-03T09:10:29.152Z,5.20
2018-10-03T09:11:29.168Z,5.20
2018-10-03T09:12:29.133Z,10.10
2018-10-03T09:13:29.123Z,5.70
2018-10-03T09:14:29.114Z,7.10
2018-10-03T09:15:29.112Z,7.40
2018-10-03T09:16:29.096Z,7.00
2018-10-03T09:17:29.087Z,5.20
2018-10-03T09:18:29.078Z,11.10
2018-10-03T09:19:29.075Z,9.40
2018-10-03T09:20:29.059Z,8.90
2018-10-03T09:21:29.163Z,9.70
2018-10-03T09:22:29.041Z,8.40
2018-10-03T09:23:29.031Z,8.10
2018-10-03T09:24:29.023Z,8.30
2018-10-03T09:25:29.013Z,6.00
2018-10-03T09:26:29.005Z,6.70
2018-10-03T09:27:28.995Z,9.30
2018-10-03T09:28:29.070Z,6.00
2018-10-03T09:29:28.978Z,8.90
2018-10-03T09:30:28.969Z,8.80
2018-10-03T09:31:28.959Z,10.10
2018-10-03T09:32:28.951Z,8.20
2018-10-03T09:33:28.941Z,6.50
2018-10-03T09:34:28.931Z,6.10
2018-10-03T09:35:28.922Z,10.70
2018-10-03T09:36:28.915Z,5.30
2018-10-03T09:37:28.904Z,6.30
2018-10-03T09:38:28.897Z,4.50
2018-10-03T09:39:28.906Z,11.60
2018-10-03T09:40:28.879Z,11.50
2018-10-03T09:41:28.867Z,10.00
2018-10-03T09:42:28.859Z,6.60
2018-10-03T09:43:28.849Z,5.80
2018-10-03T09:44:28.887Z,7.90
2018-10-03T09:45:28.836Z,5.20
2018-10-03T09:46:28.823Z,8.80
2018-10-03T09:47:28.813Z,6.80
2018-10-03T09:48:28.803Z,9.10
2018-10-03T09:49:28.794Z,7.70
2018-10-03T09:50:28.784Z,6.50
2018-10-03T09:51:28.775Z,9.40
2018-10-03T09:52:28.766Z,7.40
2018-10-03T09:53:28.757Z,6.40
2018-10-03T09:54:28.749Z,7.20
2018-10-03T09:55:28.738Z,11.00
2018-10-03T09:56:28.730Z,8.40
2018-10-03T09:57:28.721Z,10.60
2018-10-03T09:58:28.712Z,8.40
2018-10-03T09:59:28.703Z,8.00
2018-10-03T10:00:28.783Z,6.60
2018-10-03T10:01:28.685Z,6.90
2018-10-03T10:02:28.677Z,7.80
2018-10-03T10:03:28.667Z,6.10
2018-10-03T10:04:28.658Z,5.90
2018-10-03T10:05:28.650Z,6.60
2018-10-03T10:06:28.642Z,7.50
2018-10-03T10:07:28.632Z,3.90
2018-10-03T10:08:28.623Z,5.10
2018-10-03T10:09:28.616Z,6.50
2018-10-03T10:10:28.609Z,4.50
2018-10-03T10:11:28.797Z,7.50
2018-10-03T10:12:28.590Z,7.30
2018-10-03T10:13:28.581Z,4.10
2018-10-03T10:14:28.573Z,5.20
2018-10-03T10:15:28.564Z,6.80
2018-10-03T10:16:28.556Z,7.60
2018-10-03T10:17:28.548Z,7.00
2018-10-03T10:18:28.539Z,4.60
2018-10-03T10:19:28.532Z,6.10
2018-10-03T10:20:28.523Z,4.70
2018-10-03T10:21:28.514Z,5.00
2018-10-03T10:22:28.505Z,4.40
2018-10-03T10:23:28.497Z,4.70
2018-10-03T10:24:28.489Z,4.30
2018-10-03T10:25:28.479Z,5.40
2018-10-03T10:26:28.473Z,3.70
2018-10-03T10:27:28.463Z,5.60
2018-10-03T10:28:28.456Z,3.50
2018-10-03T10:29:28.447Z,3.60
2018-10-03T10:30:28.439Z,3.60
2018-10-03T10:31:28.429Z,3.50
2018-10-03T10:32:28.660Z,4.70
2018-10-03T10:33:28.423Z,4.20
2018-10-03T10:34:28.407Z,5.30
2018-10-03T10:35:28.397Z,4.10
2018-10-03T10:36:28.390Z,4.80
2018-10-03T10:37:28.382Z,2.20
2018-10-03T10:38:28.374Z,3.60
2018-10-03T10:39:28.366Z,4.70
2018-10-03T10:40:28.541Z,6.10
2018-10-03T10:41:28.516Z,4.00
2018-10-03T10:42:28.341Z,4.70
2018-10-03T10:43:28.394Z,2.30
2018-10-03T10:44:28.327Z,3.60
2018-10-03T10:45:28.319Z,4.40
2018-10-03T10:46:28.311Z,2.80
2018-10-03T10:47:28.301Z,3.80
2018-10-03T10:48:28.294Z,2.60
2018-10-03T10:49:28.286Z,2.70
2018-10-03T10:50:28.290Z,4.20
2018-10-03T10:51:28.274Z,2.50
2018-10-03T10:52:28.260Z,6.90
2018-10-03T10:53:28.254Z,3.20
2018-10-03T10:54:28.247Z,2.20
2018-10-03T10:55:28.240Z,1.60
2018-10-03T10:56:28.229Z,2.60
2018-10-03T10:57:28.222Z,3.80
2018-10-03T10:58:28.214Z,3.20
2018-10-03T10:59:28.206Z,3.30
2018-10-03T11:00:28.198Z,2.90
2018-10-03T11:01:28.193Z,2.60
2018-10-03T11:02:28.183Z,2.30
2018-10-03T11:03:28.175Z,2.40
2018-10-03T11:04:28.173Z,1.90
2018-10-03T11:05:28.160Z,3.90
2018-10-03T11:06:28.191Z,1.90
2018-10-03T11:07:28.143Z,1.60
2018-10-03T11:08:28.138Z,2.60
2018-10-03T11:09:28.128Z,1.50
2018-10-03T11:10:28.121Z,2.60
2018-10-03T11:11:28.112Z,3.70
2018-10-03T11:12:28.105Z,1.70
2018-10-03T11:13:28.097Z,2.40
2018-10-03T11:14:28.090Z,3.60
2018-10-03T11:15:28.082Z,1.70
2018-10-03T11:16:28.072Z,2.00
2018-10-03T11:17:28.066Z,2.00
2018-10-03T11:18:28.058Z,2.30
2018-10-03T11:19:28.049Z,2.40
2018-10-03T11:20:28.042Z,1.20
2018-10-03T11:21:28.036Z,1.10
2018-10-03T11:22:28.027Z,1.30
2018-10-03T11:23:28.147Z,1.30
2018-10-03T11:24:28.166Z,3.30
2018-10-03T11:25:28.003Z,1.90
2018-10-03T11:26:27.995Z,2.10
2018-10-03T11:27:27.987Z,1.60
2018-10-03T11:28:27.979Z,3.50
2018-10-03T11:29:27.972Z,2.70
2018-10-03T11:30:27.963Z,2.40
2018-10-03T11:31:27.956Z,1.20
2018-10-03T11:32:27.959Z,2.70
2018-10-03T11:33:27.941Z,1.20
2018-10-03T11:34:27.934Z,1.40
2018-10-03T11:35:28.027Z,1.40
2018-10-03T11:36:27.920Z,3.30
2018-10-03T11:37:27.910Z,2.50
2018-10-03T11:38:27.902Z,1.30
2018-10-03T11:39:27.894Z,2.60
2018-10-03T11:40:27.887Z,2.00
2018-10-03T11:41:27.879Z,6.80
2018-10-03T11:42:27.874Z,3.00
2018-10-03T11:43:27.864Z,3.70
2018-10-03T11:44:27.856Z,1.60
2018-10-03T11:45:27.849Z,2.60
2018-10-03T11:46:27.841Z,1.80
2018-10-03T11:47:27.834Z,1.80
2018-10-03T11:48:27.827Z,2.70
2018-10-03T11:49:27.821Z,1.90
2018-10-03T11:50:27.841Z,2.10
2018-10-03T11:51:27.804Z,1.60
2018-10-03T11:52:27.797Z,1.60
2018-10-03T11:53:27.793Z,1.80
2018-10-03T11:54:27.783Z,4.40
2018-10-03T11:55:27.776Z,2.70
2018-10-03T11:56:27.768Z,1.60
2018-10-03T11:57:27.764Z,1.70
2018-10-03T11:58:27.755Z,3.00
2018-10-03T11:59:27.783Z,3.60
2018-10-03T12:00:27.740Z,3.50
2018-10-03T12:01:27.735Z,4.80
2018-10-03T12:02:27.728Z,4.30
2018-10-03T12:03:27.832Z,4.30
2018-10-03T12:04:27.713Z,3.10
2018-10-03T12:05:27.706Z,4.90
2018-10-03T12:06:27.727Z,3.80
2018-10-03T12:07:27.693Z,2.50
2018-10-03T12:08:27.684Z,6.90
2018-10-03T12:09:27.679Z,2.80
2018-10-03T12:10:27.673Z,3.90
2018-10-03T12:11:27.665Z,3.20
2018-10-03T12:12:27.659Z,2.80
2018-10-03T12:13:27.653Z,1.50
2018-10-03T12:14:27.645Z,4.90
2018-10-03T12:15:27.636Z,2.50
2018-10-03T12:16:27.633Z,6.40
2018-10-03T12:17:27.624Z,9.40
2018-10-03T12:18:27.617Z,4.10
2018-10-03T12:19:27.610Z,2.50
2018-10-03T12:20:27.603Z,4.30
2018-10-03T12:21:27.599Z,3.20
2018-10-03T12:22:27.587Z,2.60
2018-10-03T12:23:27.581Z,6.20
2018-10-03T12:24:27.576Z,4.90
2018-10-03T12:25:27.567Z,4.60
2018-10-03T12:26:27.560Z,5.80
2018-10-03T12:27:27.553Z,4.50
2018-10-03T12:28:27.548Z,4.50
2018-10-03T12:29:27.542Z,4.30
2018-10-03T12:30:27.533Z,2.30
2018-10-03T12:31:27.525Z,3.40
2018-10-03T12:32:27.519Z,4.10
2018-10-03T12:33:27.581Z,1.70
2018-10-03T12:34:27.505Z,3.80
2018-10-03T12:35:27.498Z,4.00
2018-10-03T12:36:27.489Z,3.20
2018-10-03T12:37:27.486Z,2.40
2018-10-03T12:38:27.476Z,3.00
2018-10-03T12:39:27.468Z,2.80
2018-10-03T12:40:27.513Z,3.80
2018-10-03T12:41:27.454Z,2.40
2018-10-03T12:42:27.447Z,2.70
2018-10-03T12:43:27.439Z,3.50
2018-10-03T12:44:27.432Z,3.40
2018-10-03T12:45:27.427Z,3.40
2018-10-03T12:46:27.419Z,2.00
2018-10-03T12:47:27.414Z,2.60
2018-10-03T12:48:27.404Z,2.80
2018-10-03T12:49:27.398Z,1.70
2018-10-03T12:50:27.390Z,1.70
2018-10-03T12:51:27.382Z,4.00
2018-10-03T12:52:27.375Z,2.00
2018-10-03T12:53:27.370Z,1.90
2018-10-03T12:54:27.362Z,1.40
2018-10-03T12:55:27.355Z,2.10
2018-10-03T12:56:27.348Z,1.30
2018-10-03T12:57:27.341Z,2.30
2018-10-03T12:58:27.335Z,3.70
2018-10-03T12:59:27.326Z,2.60
2018-10-03T13:00:27.320Z,4.40
2018-10-03T13:01:27.313Z,2.10
2018-10-03T13:02:27.306Z,3.30
2018-10-03T13:03:27.298Z,2.90
2018-10-03T13:04:27.290Z,3.80
2018-10-03T13:05:27.283Z,3.90
2018-10-03T13:06:27.277Z,3.20
2018-10-03T13:07:27.269Z,3.60
2018-10-03T13:08:27.264Z,2.70
2018-10-03T13:09:27.257Z,2.60
2018-10-03T13:10:27.250Z,6.40
2018-10-03T13:11:27.242Z,2.20
2018-10-03T13:12:27.238Z,2.80
2018-10-03T13:13:27.227Z,1.50
2018-10-03T13:14:27.222Z,2.60
2018-10-03T13:15:27.216Z,1.80
2018-10-03T13:16:27.207Z,3.60
2018-10-03T13:17:27.202Z,3.60
2018-10-03T13:18:27.193Z,1.40